sensor_id;sensor_type;location;lat;lon;timestamp;pressure;altitude;pressure_sealevel;temperature;humidity
8451;BME280;4262;50.980;13.892;2022-11-15T04:33:20;50772.34;;;-142.97;81.51
8451;BME280;4262;50.980;13.892;2022-11-15T04:36:06;50787.94;;;-142.97;81.39
8451;BME280;4262;50.980;13.892;2022-11-15T04:39:09;50758.69;;;-142.97;81.43
8451;BME280;4262;50.980;13.892;2022-11-15T04:41:55;50768.44;;;-142.97;80.91
8451;BME280;4262;50.980;13.892;2022-11-15T04:44:40;50778.19;;;-142.97;81.21
8451;BME280;4262;50.980;13.892;2022-11-15T04:47:26;50780.13;;;-142.97;81.27
8451;BME280;4262;50.980;13.892;2022-11-15T04:50:14;50813.28;;;-142.97;81.22
8451;BME280;4262;50.980;13.892;2022-11-15T04:53:00;50764.53;;;-142.97;81.36
8451;BME280;4262;50.980;13.892;2022-11-15T04:55:46;50797.69;;;-142.97;81.22
8451;BME280;4262;50.980;13.892;2022-11-15T04:58:32;50780.13;;;-142.97;81.32
8451;BME280;4262;50.980;13.892;2022-11-15T05:01:18;50772.34;;;-142.97;81.76
8451;BME280;4262;50.980;13.892;2022-11-15T05:04:04;50787.94;;;-142.97;81.78
8451;BME280;4262;50.980;13.892;2022-11-15T05:07:10;50772.34;;;-142.97;81.56
8451;BME280;4262;50.980;13.892;2022-11-15T05:09:55;50793.78;;;-142.97;81.73
8451;BME280;4262;50.980;13.892;2022-11-15T05:12:41;50735.28;;;-142.97;81.92
8451;BME280;4262;50.980;13.892;2022-11-15T05:15:27;50787.94;;;-142.97;81.79
8451;BME280;4262;50.980;13.892;2022-11-15T05:18:13;50770.38;;;-142.97;81.60
8451;BME280;4262;50.980;13.892;2022-11-15T05:21:03;50752.84;;;-142.97;81.87
8451;BME280;4262;50.980;13.892;2022-11-15T05:23:50;50811.34;;;-142.97;81.86
8451;BME280;4262;50.980;13.892;2022-11-15T05:26:35;50778.19;;;-142.97;82.00
8451;BME280;4262;50.980;13.892;2022-11-15T05:29:21;50787.94;;;-142.97;82.07
8451;BME280;4262;50.980;13.892;2022-11-15T05:32:08;50739.19;;;-142.97;81.66
8451;BME280;4262;50.980;13.892;2022-11-15T05:34:54;50758.69;;;-142.97;82.31
8451;BME280;4262;50.980;13.892;2022-11-15T05:37:40;50785.97;;;-142.97;82.56
8451;BME280;4262;50.980;13.892;2022-11-15T05:40:28;50774.28;;;-142.97;82.63
8451;BME280;4262;50.980;13.892;2022-11-15T05:43:14;50758.69;;;-142.97;82.56
8451;BME280;4262;50.980;13.892;2022-11-15T05:46:01;50760.63;;;-142.97;82.62
8451;BME280;4262;50.980;13.892;2022-11-15T05:48:50;50791.84;;;-142.97;82.76
8451;BME280;4262;50.980;13.892;2022-11-15T05:51:38;50776.25;;;-142.97;82.70
8451;BME280;4262;50.980;13.892;2022-11-15T05:54:24;50774.28;;;-142.97;83.16
8451;BME280;4262;50.980;13.892;2022-11-15T05:57:12;50780.13;;;-142.97;83.19
8451;BME280;4262;50.980;13.892;2022-11-15T05:59:58;50778.19;;;-142.97;82.96
8451;BME280;4262;50.980;13.892;2022-11-15T06:02:43;50785.97;;;-142.97;82.89
8451;BME280;4262;50.980;13.892;2022-11-15T06:05:28;50772.34;;;-142.97;82.98
8451;BME280;4262;50.980;13.892;2022-11-15T06:08:14;50780.13;;;-142.97;83.08
8451;BME280;4262;50.980;13.892;2022-11-15T06:11:04;50768.44;;;-142.97;82.85
8451;BME280;4262;50.980;13.892;2022-11-15T06:13:51;50745.03;;;-142.97;82.58
8451;BME280;4262;50.980;13.892;2022-11-15T06:16:36;50780.13;;;-142.97;82.84
8451;BME280;4262;50.980;13.892;2022-11-15T06:19:22;50748.94;;;-142.97;82.82
8451;BME280;4262;50.980;13.892;2022-11-15T06:22:07;50791.84;;;-142.97;82.81
8451;BME280;4262;50.980;13.892;2022-11-15T06:24:53;50747.00;;;-142.97;82.78
8451;BME280;4262;50.980;13.892;2022-11-15T06:27:39;50772.34;;;-142.97;82.63
8451;BME280;4262;50.980;13.892;2022-11-15T06:30:26;50762.59;;;-142.97;82.68
8451;BME280;4262;50.980;13.892;2022-11-15T06:33:11;50756.75;;;-142.97;82.57
8451;BME280;4262;50.980;13.892;2022-11-15T06:36:00;50784.03;;;-142.97;82.53
8451;BME280;4262;50.980;13.892;2022-11-15T06:38:45;50770.38;;;-142.97;82.89
8451;BME280;4262;50.980;13.892;2022-11-15T06:41:33;50770.38;;;-142.97;82.63
8451;BME280;4262;50.980;13.892;2022-11-15T06:44:19;50760.63;;;-142.97;82.53
8451;BME280;4262;50.980;13.892;2022-11-15T06:47:06;50780.13;;;-142.97;82.31
8451;BME280;4262;50.980;13.892;2022-11-15T06:49:52;50770.38;;;-142.97;82.16
8451;BME280;4262;50.980;13.892;2022-11-15T06:52:37;50754.78;;;-142.97;82.46
8451;BME280;4262;50.980;13.892;2022-11-15T06:55:23;50758.69;;;-142.97;82.30
8451;BME280;4262;50.980;13.892;2022-11-15T06:58:08;50778.19;;;-142.97;82.72
8451;BME280;4262;50.980;13.892;2022-11-15T07:00:58;50784.03;;;-142.97;82.61
8451;BME280;4262;50.980;13.892;2022-11-15T07:03:45;50821.09;;;-142.97;82.07
8451;BME280;4262;50.980;13.892;2022-11-15T07:06:31;50776.25;;;-142.97;82.45
8451;BME280;4262;50.980;13.892;2022-11-15T07:09:16;50752.84;;;-142.97;82.17
8451;BME280;4262;50.980;13.892;2022-11-15T07:12:02;50782.09;;;-142.97;82.02
8451;BME280;4262;50.980;13.892;2022-11-15T07:14:48;50776.25;;;-142.97;82.06
8451;BME280;4262;50.980;13.892;2022-11-15T07:17:33;50789.88;;;-142.97;81.87
8451;BME280;4262;50.980;13.892;2022-11-15T07:20:20;50770.38;;;-142.97;82.14
8451;BME280;4262;50.980;13.892;2022-11-15T07:23:05;50758.69;;;-142.97;82.07
8451;BME280;4262;50.980;13.892;2022-11-15T07:25:51;50784.03;;;-142.97;81.83
8451;BME280;4262;50.980;13.892;2022-11-15T07:28:36;50756.75;;;-142.97;81.71
8451;BME280;4262;50.980;13.892;2022-11-15T07:31:21;50752.84;;;-142.97;81.71
8451;BME280;4262;50.980;13.892;2022-11-15T07:34:07;50750.88;;;-142.97;81.41
8451;BME280;4262;50.980;13.892;2022-11-15T07:36:55;50787.94;;;-142.97;81.00
8451;BME280;4262;50.980;13.892;2022-11-15T07:39:40;50764.53;;;-142.97;80.75
8451;BME280;4262;50.980;13.892;2022-11-15T07:42:26;50770.38;;;-142.97;80.20
8451;BME280;4262;50.980;13.892;2022-11-15T07:45:29;50784.03;;;-142.97;80.09
8451;BME280;4262;50.980;13.892;2022-11-15T07:48:15;50817.19;;;-142.97;79.45
8451;BME280;4262;50.980;13.892;2022-11-15T07:51:00;50780.13;;;-142.97;79.67
8451;BME280;4262;50.980;13.892;2022-11-15T07:53:47;50772.34;;;-142.97;79.38
8451;BME280;4262;50.980;13.892;2022-11-15T07:56:33;50811.34;;;-142.97;79.31
8451;BME280;4262;50.980;13.892;2022-11-15T07:59:18;50776.25;;;-142.97;78.90
8451;BME280;4262;50.980;13.892;2022-11-15T08:02:05;50789.88;;;-142.97;78.75
8451;BME280;4262;50.980;13.892;2022-11-15T08:04:50;50784.03;;;-142.97;78.32
8451;BME280;4262;50.980;13.892;2022-11-15T08:07:36;50754.78;;;-142.97;77.79
8451;BME280;4262;50.980;13.892;2022-11-15T08:10:24;50787.94;;;-142.97;78.23
8451;BME280;4262;50.980;13.892;2022-11-15T08:13:11;50768.44;;;-142.97;77.92
8451;BME280;4262;50.980;13.892;2022-11-15T08:15:58;50778.19;;;-142.97;77.46
8451;BME280;4262;50.980;13.892;2022-11-15T08:18:44;50758.69;;;-142.97;77.07
8451;BME280;4262;50.980;13.892;2022-11-15T08:21:30;50739.19;;;-142.97;77.03
8451;BME280;4262;50.980;13.892;2022-11-15T08:24:16;50762.59;;;-142.97;77.26
8451;BME280;4262;50.980;13.892;2022-11-15T08:27:03;50768.44;;;-142.97;76.81
8451;BME280;4262;50.980;13.892;2022-11-15T08:29:49;50770.38;;;-142.97;76.88
8451;BME280;4262;50.980;13.892;2022-11-15T08:32:34;50778.19;;;-142.97;76.44
8451;BME280;4262;50.980;13.892;2022-11-15T08:35:20;50776.25;;;-142.97;75.96
8451;BME280;4262;50.980;13.892;2022-11-15T08:38:06;50772.34;;;-142.97;75.99
8451;BME280;4262;50.980;13.892;2022-11-15T08:40:53;50787.94;;;-142.97;75.61
8451;BME280;4262;50.980;13.892;2022-11-15T08:43:45;50758.69;;;-142.97;74.99
8451;BME280;4262;50.980;13.892;2022-11-15T08:46:30;50801.59;;;-142.97;74.95
8451;BME280;4262;50.980;13.892;2022-11-15T08:49:16;50770.38;;;-142.97;75.07
8451;BME280;4262;50.980;13.892;2022-11-15T08:52:01;50780.13;;;-142.97;74.53
8451;BME280;4262;50.980;13.892;2022-11-15T08:54:47;50770.38;;;-142.97;74.26
8451;BME280;4262;50.980;13.892;2022-11-15T08:57:33;50780.13;;;-142.97;73.37
8451;BME280;4262;50.980;13.892;2022-11-15T09:00:20;50754.78;;;-142.97;73.16
8451;BME280;4262;50.980;13.892;2022-11-15T09:03:06;50817.19;;;-142.97;73.52
8451;BME280;4262;50.980;13.892;2022-11-15T09:05:54;50739.19;;;-142.97;72.60
8451;BME280;4262;50.980;13.892;2022-11-15T09:08:41;50747.00;;;-142.97;72.26
8451;BME280;4262;50.980;13.892;2022-11-15T09:11:27;50784.03;;;-142.97;72.15
8451;BME280;4262;50.980;13.892;2022-11-15T09:14:13;50770.38;;;-142.97;71.56
8451;BME280;4262;50.980;13.892;2022-11-15T09:17:00;50799.63;;;-142.97;71.09
8451;BME280;4262;50.980;13.892;2022-11-15T09:19:46;50758.69;;;-142.97;71.33
8451;BME280;4262;50.980;13.892;2022-11-15T09:22:32;50729.44;;;-142.97;70.76
8451;BME280;4262;50.980;13.892;2022-11-15T09:25:18;50774.28;;;-142.97;70.55
8451;BME280;4262;50.980;13.892;2022-11-15T09:28:06;50774.28;;;-142.97;70.74
8451;BME280;4262;50.980;13.892;2022-11-15T09:30:51;50791.84;;;-142.97;70.33
8451;BME280;4262;50.980;13.892;2022-11-15T09:33:38;50782.09;;;-142.97;70.14
8451;BME280;4262;50.980;13.892;2022-11-15T09:36:25;50760.63;;;-142.97;69.21
8451;BME280;4262;50.980;13.892;2022-11-15T09:39:11;50776.25;;;-142.97;69.05
8451;BME280;4262;50.980;13.892;2022-11-15T09:42:16;50784.03;;;-142.97;68.59
8451;BME280;4262;50.980;13.892;2022-11-15T09:45:13;50692.38;;;-142.97;66.79
8451;BME280;4262;50.980;13.892;2022-11-15T09:48:33;50594.91;;;-142.97;60.79
8451;BME280;4262;50.980;13.892;2022-11-15T09:51:31;50577.34;;;-142.97;54.53
8451;BME280;4262;50.980;13.892;2022-11-15T09:54:04;50563.69;;;-142.97;53.33
8451;BME280;4262;50.980;13.892;2022-11-15T09:56:36;50577.34;;;-142.97;51.25
8451;BME280;4262;50.980;13.892;2022-11-15T09:59:27;50581.25;;;-142.97;50.76
8451;BME280;4262;50.980;13.892;2022-11-15T10:02:04;50552.00;;;-142.97;50.36
8451;BME280;4262;50.980;13.892;2022-11-15T10:04:36;50577.34;;;-142.97;49.55
8451;BME280;4262;50.980;13.892;2022-11-15T10:07:13;50567.59;;;-142.97;48.39
8451;BME280;4262;50.980;13.892;2022-11-15T10:09:47;50583.19;;;-142.97;48.83
8451;BME280;4262;50.980;13.892;2022-11-15T10:12:15;50563.69;;;-142.97;46.41
8451;BME280;4262;50.980;13.892;2022-11-15T10:14:43;50561.75;;;-142.97;45.51
8451;BME280;4262;50.980;13.892;2022-11-15T10:17:21;50557.84;;;-142.97;44.48
8451;BME280;4262;50.980;13.892;2022-11-15T10:20:02;50534.47;;;-142.97;44.64
8451;BME280;4262;50.980;13.892;2022-11-15T10:22:37;50548.09;;;-142.97;44.32
8451;BME280;4262;50.980;13.892;2022-11-15T10:25:20;50548.09;;;-142.97;43.13
8451;BME280;4262;50.980;13.892;2022-11-15T10:27:52;50520.81;;;-142.97;42.89
8451;BME280;4262;50.980;13.892;2022-11-15T10:30:20;50532.50;;;-142.97;43.88
8451;BME280;4262;50.980;13.892;2022-11-15T10:32:48;50553.94;;;-142.97;43.29
8451;BME280;4262;50.980;13.892;2022-11-15T10:35:19;50567.59;;;-142.97;43.81
8451;BME280;4262;50.980;13.892;2022-11-15T10:37:48;50591.00;;;-142.97;43.85
8451;BME280;4262;50.980;13.892;2022-11-15T10:40:17;50546.16;;;-142.97;43.32
8451;BME280;4262;50.980;13.892;2022-11-15T10:42:45;50534.47;;;-142.97;43.80
8451;BME280;4262;50.980;13.892;2022-11-15T10:45:27;50546.16;;;-142.97;42.68
8451;BME280;4262;50.980;13.892;2022-11-15T10:48:20;50563.69;;;-142.97;42.98
8451;BME280;4262;50.980;13.892;2022-11-15T10:50:49;50538.34;;;-142.97;43.17
8451;BME280;4262;50.980;13.892;2022-11-15T10:53:22;50546.16;;;-142.97;42.75
8451;BME280;4262;50.980;13.892;2022-11-15T10:55:53;50524.72;;;-142.97;42.01
8451;BME280;4262;50.980;13.892;2022-11-15T10:58:33;50518.84;;;-142.97;42.15
8451;BME280;4262;50.980;13.892;2022-11-15T11:01:13;50561.75;;;-142.97;43.46
8451;BME280;4262;50.980;13.892;2022-11-15T11:03:42;50542.25;;;-142.97;43.75
8451;BME280;4262;50.980;13.892;2022-11-15T11:06:12;50497.41;;;-142.97;42.63
8451;BME280;4262;50.980;13.892;2022-11-15T11:08:53;50540.31;;;-142.97;43.63
8451;BME280;4262;50.980;13.892;2022-11-15T11:11:21;50550.06;;;-142.97;42.93
8451;BME280;4262;50.980;13.892;2022-11-15T11:13:48;50513.00;;;-142.97;43.22
8451;BME280;4262;50.980;13.892;2022-11-15T11:16:40;50544.19;;;-142.97;42.72
8451;BME280;4262;50.980;13.892;2022-11-15T11:19:30;50514.97;;;-142.97;42.60
8451;BME280;4262;50.980;13.892;2022-11-15T11:22:04;50520.81;;;-142.97;42.84
8451;BME280;4262;50.980;13.892;2022-11-15T11:24:38;50540.31;;;-142.97;42.71
8451;BME280;4262;50.980;13.892;2022-11-15T11:27:17;50553.94;;;-142.97;42.81
8451;BME280;4262;50.980;13.892;2022-11-15T11:30:02;50552.00;;;-142.97;43.37
8451;BME280;4262;50.980;13.892;2022-11-15T11:32:40;50561.75;;;-142.97;44.24
8451;BME280;4262;50.980;13.892;2022-11-15T11:35:14;50571.50;;;-142.97;43.25
8451;BME280;4262;50.980;13.892;2022-11-15T11:37:47;50542.25;;;-142.97;43.68
8451;BME280;4262;50.980;13.892;2022-11-15T11:40:30;50536.41;;;-142.97;42.90
8451;BME280;4262;50.980;13.892;2022-11-15T11:43:08;50561.75;;;-142.97;42.27
8451;BME280;4262;50.980;13.892;2022-11-15T11:46:02;50534.47;;;-142.97;42.31
8451;BME280;4262;50.980;13.892;2022-11-15T11:48:41;50544.19;;;-142.97;42.16
8451;BME280;4262;50.980;13.892;2022-11-15T11:51:13;50538.34;;;-142.97;42.91
8451;BME280;4262;50.980;13.892;2022-11-15T11:53:47;50579.31;;;-142.97;41.26
8451;BME280;4262;50.980;13.892;2022-11-15T11:56:23;50579.31;;;-142.97;41.99
8451;BME280;4262;50.980;13.892;2022-11-15T11:58:53;50544.19;;;-142.97;40.88
8451;BME280;4262;50.980;13.892;2022-11-15T12:01:23;50530.56;;;-142.97;41.97
8451;BME280;4262;50.980;13.892;2022-11-15T12:03:54;50563.69;;;-142.97;42.09
8451;BME280;4262;50.980;13.892;2022-11-15T12:06:28;50550.06;;;-142.97;42.57
8451;BME280;4262;50.980;13.892;2022-11-15T12:09:01;50577.34;;;-142.97;42.60
8451;BME280;4262;50.980;13.892;2022-11-15T12:11:36;50559.81;;;-142.97;41.97
8451;BME280;4262;50.980;13.892;2022-11-15T12:14:10;50540.31;;;-142.97;41.94
8451;BME280;4262;50.980;13.892;2022-11-15T12:16:42;50563.69;;;-142.97;41.94
8451;BME280;4262;50.980;13.892;2022-11-15T12:19:09;50577.34;;;-142.97;42.26
8451;BME280;4262;50.980;13.892;2022-11-15T12:21:42;50591.00;;;-142.97;42.86
8451;BME280;4262;50.980;13.892;2022-11-15T12:24:15;50583.19;;;-142.97;42.16
8451;BME280;4262;50.980;13.892;2022-11-15T12:26:49;50592.94;;;-142.97;42.40
8451;BME280;4262;50.980;13.892;2022-11-15T12:29:20;50604.66;;;-142.97;42.31
8451;BME280;4262;50.980;13.892;2022-11-15T12:31:51;50579.31;;;-142.97;42.76
8451;BME280;4262;50.980;13.892;2022-11-15T12:34:46;50575.41;;;-142.97;44.53
8451;BME280;4262;50.980;13.892;2022-11-15T12:37:49;50591.00;;;-142.97;44.46
8451;BME280;4262;50.980;13.892;2022-11-15T12:40:25;50563.69;;;-142.97;43.73
8451;BME280;4262;50.980;13.892;2022-11-15T12:45:46;50579.31;;;-142.97;43.86
8451;BME280;4262;50.980;13.892;2022-11-15T12:55:00;50591.00;;;-142.97;44.55
8451;BME280;4262;50.980;13.892;2022-11-15T12:57:40;50557.84;;;-142.97;44.30
8451;BME280;4262;50.980;13.892;2022-11-15T13:03:27;50612.44;;;-142.97;45.46
8451;BME280;4262;50.980;13.892;2022-11-15T13:06:09;50602.69;;;-142.97;46.54
8451;BME280;4262;50.980;13.892;2022-11-15T13:08:46;50585.16;;;-142.97;45.99
8451;BME280;4262;50.980;13.892;2022-11-15T13:11:42;50641.69;;;-142.97;47.02
8451;BME280;4262;50.980;13.892;2022-11-15T13:14:37;50618.28;;;-142.97;46.70
8451;BME280;4262;50.980;13.892;2022-11-15T13:17:25;50622.19;;;-142.97;47.61
8451;BME280;4262;50.980;13.892;2022-11-15T13:19:58;50653.41;;;-142.97;48.44
8451;BME280;4262;50.980;13.892;2022-11-15T13:22:26;50637.78;;;-142.97;48.14
8451;BME280;4262;50.980;13.892;2022-11-15T13:25:22;50653.41;;;-142.97;48.47
8451;BME280;4262;50.980;13.892;2022-11-15T13:27:54;50659.25;;;-142.97;48.00
8451;BME280;4262;50.980;13.892;2022-11-15T13:30:24;50649.50;;;-142.97;48.44
8451;BME280;4262;50.980;13.892;2022-11-15T13:32:51;50711.88;;;-142.97;49.05
8451;BME280;4262;50.980;13.892;2022-11-15T13:35:23;50750.88;;;-142.97;49.99
8451;BME280;4262;50.980;13.892;2022-11-15T13:37:52;50735.28;;;-142.97;49.99
8451;BME280;4262;50.980;13.892;2022-11-15T13:40:23;50772.34;;;-142.97;51.03
8451;BME280;4262;50.980;13.892;2022-11-15T13:42:50;50741.13;;;-142.97;52.51
8451;BME280;4262;50.980;13.892;2022-11-15T13:45:19;50756.75;;;-142.97;52.84
8451;BME280;4262;50.980;13.892;2022-11-15T13:47:51;50721.63;;;-142.97;54.51
8451;BME280;4262;50.980;13.892;2022-11-15T13:50:22;50739.19;;;-142.97;55.67
8451;BME280;4262;50.980;13.892;2022-11-15T13:52:51;50778.19;;;-142.97;57.55
8451;BME280;4262;50.980;13.892;2022-11-15T13:55:21;50776.25;;;-142.97;58.39
8451;BME280;4262;50.980;13.892;2022-11-15T13:57:51;50743.09;;;-142.97;59.25
8451;BME280;4262;50.980;13.892;2022-11-15T14:00:33;50748.94;;;-142.97;60.33
8451;BME280;4262;50.980;13.892;2022-11-15T14:03:07;50784.03;;;-142.97;61.90
8451;BME280;4262;50.980;13.892;2022-11-15T14:05:36;50787.94;;;-142.97;62.26
8451;BME280;4262;50.980;13.892;2022-11-15T14:08:21;50789.88;;;-142.97;62.50
8451;BME280;4262;50.980;13.892;2022-11-15T14:11:05;50762.59;;;-142.97;62.22
8451;BME280;4262;50.980;13.892;2022-11-15T14:13:32;50780.13;;;-142.97;62.85
8451;BME280;4262;50.980;13.892;2022-11-15T14:16:13;50768.44;;;-142.97;63.91
8451;BME280;4262;50.980;13.892;2022-11-15T14:18:43;50745.03;;;-142.97;63.43
8451;BME280;4262;50.980;13.892;2022-11-15T14:21:12;50768.44;;;-142.97;63.78
8451;BME280;4262;50.980;13.892;2022-11-15T14:23:39;50772.34;;;-142.97;64.67
8451;BME280;4262;50.980;13.892;2022-11-15T14:26:05;50797.69;;;-142.97;65.76
8451;BME280;4262;50.980;13.892;2022-11-15T14:28:33;50785.97;;;-142.97;66.06
8451;BME280;4262;50.980;13.892;2022-11-15T14:31:11;50826.94;;;-142.97;66.08
8451;BME280;4262;50.980;13.892;2022-11-15T14:33:39;50748.94;;;-142.97;66.11
8451;BME280;4262;50.980;13.892;2022-11-15T14:36:14;50778.19;;;-142.97;66.16
8451;BME280;4262;50.980;13.892;2022-11-15T14:38:42;50797.69;;;-142.97;65.76
8451;BME280;4262;50.980;13.892;2022-11-15T14:41:17;50793.78;;;-142.97;65.61
8451;BME280;4262;50.980;13.892;2022-11-15T14:43:45;50778.19;;;-142.97;66.44
8451;BME280;4262;50.980;13.892;2022-11-15T14:46:12;50752.84;;;-142.97;66.29
8451;BME280;4262;50.980;13.892;2022-11-15T14:48:39;50750.88;;;-142.97;66.84
8451;BME280;4262;50.980;13.892;2022-11-15T14:51:12;50784.03;;;-142.97;67.16
8451;BME280;4262;50.980;13.892;2022-11-15T14:53:40;50768.44;;;-142.97;67.41
8451;BME280;4262;50.980;13.892;2022-11-15T14:56:07;50805.50;;;-142.97;67.50
8451;BME280;4262;50.980;13.892;2022-11-15T14:58:34;50791.84;;;-142.97;68.24
8451;BME280;4262;50.980;13.892;2022-11-15T15:01:02;50782.09;;;-142.97;68.54
8451;BME280;4262;50.980;13.892;2022-11-15T15:03:30;50789.88;;;-142.97;68.39
8451;BME280;4262;50.980;13.892;2022-11-15T15:05:57;50791.84;;;-142.97;68.53
8451;BME280;4262;50.980;13.892;2022-11-15T15:08:25;50754.78;;;-142.97;69.66
8451;BME280;4262;50.980;13.892;2022-11-15T15:10:52;50729.44;;;-142.97;69.83
8451;BME280;4262;50.980;13.892;2022-11-15T15:13:21;50793.78;;;-142.97;70.63
8451;BME280;4262;50.980;13.892;2022-11-15T15:15:49;50756.75;;;-142.97;70.92
8451;BME280;4262;50.980;13.892;2022-11-15T15:18:17;50805.50;;;-142.97;71.00
8451;BME280;4262;50.980;13.892;2022-11-15T15:20:45;50772.34;;;-142.97;70.75
8451;BME280;4262;50.980;13.892;2022-11-15T15:23:16;50768.44;;;-142.97;71.34
8451;BME280;4262;50.980;13.892;2022-11-15T15:25:46;50787.94;;;-142.97;71.95
8451;BME280;4262;50.980;13.892;2022-11-15T15:28:14;50754.78;;;-142.97;72.22
8451;BME280;4262;50.980;13.892;2022-11-15T15:30:41;50754.78;;;-142.97;71.82
8451;BME280;4262;50.980;13.892;2022-11-15T15:33:09;50787.94;;;-142.97;71.95
8451;BME280;4262;50.980;13.892;2022-11-15T15:35:36;50787.94;;;-142.97;71.83
8451;BME280;4262;50.980;13.892;2022-11-15T15:38:05;50807.44;;;-142.97;72.02
8451;BME280;4262;50.980;13.892;2022-11-15T15:40:32;50776.25;;;-142.97;72.15
8451;BME280;4262;50.980;13.892;2022-11-15T15:43:01;50778.19;;;-142.97;73.21
8451;BME280;4262;50.980;13.892;2022-11-15T15:45:28;50782.09;;;-142.97;73.01
8451;BME280;4262;50.980;13.892;2022-11-15T15:47:55;50791.84;;;-142.97;73.23
8451;BME280;4262;50.980;13.892;2022-11-15T15:50:24;50803.53;;;-142.97;73.52
8451;BME280;4262;50.980;13.892;2022-11-15T15:52:52;50764.53;;;-142.97;73.42
8451;BME280;4262;50.980;13.892;2022-11-15T15:55:19;50760.63;;;-142.97;73.89
8451;BME280;4262;50.980;13.892;2022-11-15T15:57:47;50787.94;;;-142.97;73.71
8451;BME280;4262;50.980;13.892;2022-11-15T16:00:16;50811.34;;;-142.97;74.23
8451;BME280;4262;50.980;13.892;2022-11-15T16:02:43;50770.38;;;-142.97;74.11
8451;BME280;4262;50.980;13.892;2022-11-15T16:05:10;50762.59;;;-142.97;74.07
8451;BME280;4262;50.980;13.892;2022-11-15T16:07:38;50785.97;;;-142.97;74.63
8451;BME280;4262;50.980;13.892;2022-11-15T16:10:17;50791.84;;;-142.97;74.49
8451;BME280;4262;50.980;13.892;2022-11-15T16:12:45;50741.13;;;-142.97;74.63
8451;BME280;4262;50.980;13.892;2022-11-15T16:15:12;50795.75;;;-142.97;74.51
8451;BME280;4262;50.980;13.892;2022-11-15T16:17:48;50793.78;;;-142.97;74.87
8451;BME280;4262;50.980;13.892;2022-11-15T16:20:29;50809.38;;;-142.97;75.19
8451;BME280;4262;50.980;13.892;2022-11-15T16:22:56;50776.25;;;-142.97;75.38
8451;BME280;4262;50.980;13.892;2022-11-15T16:25:24;50756.75;;;-142.97;75.68
8451;BME280;4262;50.980;13.892;2022-11-15T16:27:51;50830.84;;;-142.97;75.49
8451;BME280;4262;50.980;13.892;2022-11-15T16:30:21;50774.28;;;-142.97;76.03
8451;BME280;4262;50.980;13.892;2022-11-15T16:32:49;50770.38;;;-142.97;75.58
8451;BME280;4262;50.980;13.892;2022-11-15T16:35:17;50733.34;;;-142.97;75.74
8451;BME280;4262;50.980;13.892;2022-11-15T16:37:44;50776.25;;;-142.97;75.84
8451;BME280;4262;50.980;13.892;2022-11-15T16:40:20;50754.78;;;-142.97;75.76
8451;BME280;4262;50.980;13.892;2022-11-15T16:42:50;50776.25;;;-142.97;76.22
8451;BME280;4262;50.980;13.892;2022-11-15T16:45:17;50760.63;;;-142.97;75.72
8451;BME280;4262;50.980;13.892;2022-11-15T16:47:44;50799.63;;;-142.97;75.49
8451;BME280;4262;50.980;13.892;2022-11-15T16:50:18;50768.44;;;-142.97;75.80
8451;BME280;4262;50.980;13.892;2022-11-15T16:52:50;50801.59;;;-142.97;76.03
8451;BME280;4262;50.980;13.892;2022-11-15T16:55:17;50801.59;;;-142.97;76.17
8451;BME280;4262;50.980;13.892;2022-11-15T16:57:44;50756.75;;;-142.97;76.17
8451;BME280;4262;50.980;13.892;2022-11-15T17:00:12;50784.03;;;-142.97;76.69
8451;BME280;4262;50.980;13.892;2022-11-15T17:02:41;50780.13;;;-142.97;76.68
8451;BME280;4262;50.980;13.892;2022-11-15T17:05:09;50793.78;;;-142.97;77.32
8451;BME280;4262;50.980;13.892;2022-11-15T17:07:37;50811.34;;;-142.97;77.14
8451;BME280;4262;50.980;13.892;2022-11-15T17:10:05;50760.63;;;-142.97;76.97
8451;BME280;4262;50.980;13.892;2022-11-15T17:12:33;50745.03;;;-142.97;77.19
8451;BME280;4262;50.980;13.892;2022-11-15T17:15:01;50828.88;;;-142.97;77.68
8451;BME280;4262;50.980;13.892;2022-11-15T17:17:29;50780.13;;;-142.97;77.48
8451;BME280;4262;50.980;13.892;2022-11-15T17:19:56;50772.34;;;-142.97;77.75
8451;BME280;4262;50.980;13.892;2022-11-15T17:22:23;50772.34;;;-142.97;77.33
8451;BME280;4262;50.980;13.892;2022-11-15T17:24:52;50752.84;;;-142.97;77.90
8451;BME280;4262;50.980;13.892;2022-11-15T17:27:19;50782.09;;;-142.97;77.69
8451;BME280;4262;50.980;13.892;2022-11-15T17:29:46;50797.69;;;-142.97;78.13
8451;BME280;4262;50.980;13.892;2022-11-15T17:32:12;50772.34;;;-142.97;78.33
8451;BME280;4262;50.980;13.892;2022-11-15T17:34:39;50772.34;;;-142.97;78.39
8451;BME280;4262;50.980;13.892;2022-11-15T17:37:06;50801.59;;;-142.97;78.80
8451;BME280;4262;50.980;13.892;2022-11-15T17:39:32;50776.25;;;-142.97;78.79
8451;BME280;4262;50.980;13.892;2022-11-15T17:42:00;50772.34;;;-142.97;79.00
8451;BME280;4262;50.980;13.892;2022-11-15T17:44:27;50787.94;;;-142.97;78.73
8451;BME280;4262;50.980;13.892;2022-11-15T17:46:54;50733.34;;;-142.97;78.87
8451;BME280;4262;50.980;13.892;2022-11-15T17:49:21;50764.53;;;-142.97;78.68
8451;BME280;4262;50.980;13.892;2022-11-15T17:51:48;50799.63;;;-142.97;78.83
8451;BME280;4262;50.980;13.892;2022-11-15T17:54:15;50762.59;;;-142.97;78.54
8451;BME280;4262;50.980;13.892;2022-11-15T17:56:42;50782.09;;;-142.97;78.63
8451;BME280;4262;50.980;13.892;2022-11-15T17:59:10;50782.09;;;-142.97;79.02
8451;BME280;4262;50.980;13.892;2022-11-15T18:01:37;50799.63;;;-142.97;78.56
8451;BME280;4262;50.980;13.892;2022-11-15T18:04:07;50793.78;;;-142.97;78.71
8451;BME280;4262;50.980;13.892;2022-11-15T18:06:35;50739.19;;;-142.97;78.83
8451;BME280;4262;50.980;13.892;2022-11-15T18:09:03;50776.25;;;-142.97;78.51
8451;BME280;4262;50.980;13.892;2022-11-15T18:11:33;50760.63;;;-142.97;78.68
8451;BME280;4262;50.980;13.892;2022-11-15T18:14:04;50758.69;;;-142.97;78.72
8451;BME280;4262;50.980;13.892;2022-11-15T18:16:34;50785.97;;;-142.97;78.92
8451;BME280;4262;50.980;13.892;2022-11-15T18:19:02;50778.19;;;-142.97;78.62
8451;BME280;4262;50.980;13.892;2022-11-15T18:21:33;50789.88;;;-142.97;78.93
8451;BME280;4262;50.980;13.892;2022-11-15T18:24:20;50784.03;;;-142.97;78.83
8451;BME280;4262;50.980;13.892;2022-11-15T18:26:47;50770.38;;;-142.97;78.85
8451;BME280;4262;50.980;13.892;2022-11-15T18:29:14;50803.53;;;-142.97;78.76